Time;durP1;ratioP1;P1;durP2;ratioP2;P2;SDS_P1;SDS_P2;PMS_P1;PMS_P2;Temp;Humidity;BMP_temperature;BMP_pressure;BME280_temperature;BME280_humidity;BME280_pressure;Samples;Min_cycle;Max_cycle;Signal;HPM_P1;HPM_P2
2023/04/20 00:00:09;;;;;;;5.17;4.40;;;9.00;99.90;;;;;;5094078;28;20217;-67
2023/04/20 00:02:38;;;;;;;8.00;4.40;;;8.90;99.90;;;;;;5094433;28;20190;-67
2023/04/20 00:05:09;;;;;;;5.10;4.23;;;8.90;99.90;;;;;;5094487;28;20226;-67
2023/04/20 00:07:35;;;;;;;5.87;4.30;;;8.80;1.00;;;;;;5094569;28;20270;-69
2023/04/20 00:10:02;;;;;;;8.17;4.50;;;8.80;99.90;;;;;;5094503;28;20174;-68
2023/04/20 00:12:28;;;;;;;4.70;4.30;;;8.90;99.90;;;;;;5093835;28;20241;-66
2023/04/20 00:14:54;;;;;;;9.37;4.77;;;8.80;99.90;;;;;;5094291;28;20176;-68
2023/04/20 00:17:20;;;;;;;6.50;4.20;;;8.80;1.00;;;;;;5094071;28;20185;-67
2023/04/20 00:19:46;;;;;;;8.47;4.00;;;8.80;1.00;;;;;;5094193;28;20184;-68
2023/04/20 00:22:12;;;;;;;5.90;3.90;;;8.70;96.00;;;;;;5093442;28;20184;-68
2023/04/20 00:24:38;;;;;;;6.67;4.50;;;8.70;99.90;;;;;;5094280;28;20195;-67
2023/04/20 00:27:04;;;;;;;6.23;4.07;;;8.60;99.90;;;;;;5093497;28;20178;-67
2023/04/20 00:29:30;;;;;;;5.93;4.67;;;8.60;99.90;;;;;;5093845;28;20168;-68
2023/04/20 00:31:58;;;;;;;5.90;4.60;;;8.60;99.90;;;;;;5093532;28;20230;-68
2023/04/20 00:34:24;;;;;;;4.17;3.87;;;8.60;99.90;;;;;;5093645;28;20195;-68
2023/04/20 00:36:49;;;;;;;6.87;3.93;;;8.50;1.00;;;;;;5093553;28;20167;-68
2023/04/20 00:39:15;;;;;;;5.07;4.27;;;8.50;1.00;;;;;;5093237;28;20184;-67
2023/04/20 00:41:41;;;;;;;5.23;4.00;;;8.50;99.90;;;;;;5092881;28;20223;-68
2023/04/20 00:44:10;;;;;;;6.47;4.10;;;8.60;1.00;;;;;;5093596;28;20207;-68
2023/04/20 00:46:36;;;;;;;5.97;3.77;;;8.50;1.00;;;;;;5109089;28;20251;-68
2023/04/20 00:49:01;;;;;;;5.67;4.27;;;8.50;1.00;;;;;;5093934;28;20533;-67
2023/04/20 00:51:28;;;;;;;6.17;3.93;;;8.50;99.90;;;;;;5093249;28;20648;-67
2023/04/20 00:53:53;;;;;;;8.67;4.47;;;8.40;1.00;;;;;;5093679;28;20187;-68
2023/04/20 00:56:19;;;;;;;5.57;4.00;;;8.40;99.90;;;;;;5092907;28;20651;-68
2023/04/20 00:58:45;;;;;;;8.60;4.33;;;8.30;1.00;;;;;;5093590;28;20168;-66
2023/04/20 01:01:12;;;;;;;5.87;4.00;;;8.30;1.00;;;;;;5093324;28;20184;-67
2023/04/20 01:03:39;;;;;;;6.77;3.97;;;8.20;99.90;;;;;;5093534;28;20175;-67
2023/04/20 01:06:06;;;;;;;6.10;3.63;;;8.20;99.90;;;;;;5093143;28;20176;-68
2023/04/20 01:08:31;;;;;;;4.20;3.80;;;8.20;1.00;;;;;;5093536;28;20701;-67
2023/04/20 01:10:57;;;;;;;5.30;4.10;;;8.10;99.90;;;;;;5092685;28;20191;-68
2023/04/20 01:13:23;;;;;;;6.40;4.07;;;8.10;99.90;;;;;;5093199;28;20179;-67
2023/04/20 01:15:49;;;;;;;6.33;4.50;;;8.00;1.00;;;;;;5093362;28;20587;-68
2023/04/20 01:18:17;;;;;;;6.67;4.40;;;8.00;99.90;;;;;;5093064;28;20225;-68
2023/04/20 01:20:44;;;;;;;4.40;4.00;;;7.90;1.00;;;;;;5093076;28;20634;-67
2023/04/20 01:23:09;;;;;;;6.27;4.67;;;7.90;1.00;;;;;;5093148;28;20187;-67
2023/04/20 01:25:35;;;;;;;5.73;4.00;;;7.90;1.00;;;;;;5092739;28;20164;-67
2023/04/20 01:28:01;;;;;;;7.20;4.37;;;7.80;1.00;;;;;;5092938;28;20176;-68
2023/04/20 01:30:27;;;;;;;7.47;4.43;;;7.90;99.90;;;;;;5093451;28;20255;-68
2023/04/20 01:32:53;;;;;;;5.93;4.33;;;7.80;1.00;;;;;;5092893;28;20203;-68
2023/04/20 01:35:18;;;;;;;6.73;4.23;;;7.70;99.90;;;;;;5091654;28;20199;-68
2023/04/20 01:37:44;;;;;;;5.37;4.10;;;7.70;1.00;;;;;;5092774;28;20183;-68
2023/04/20 01:40:11;;;;;;;8.33;4.33;;;7.70;99.90;;;;;;5092696;28;20171;-68
2023/04/20 01:42:37;;;;;;;6.67;4.20;;;7.60;99.90;;;;;;5092367;28;20220;-67
2023/04/20 01:45:07;;;;;;;6.90;4.33;;;7.60;1.00;;;;;;5093157;28;20180;-68
2023/04/20 01:47:33;;;;;;;4.60;3.43;;;7.60;1.00;;;;;;5092900;28;20225;-68
2023/04/20 01:49:59;;;;;;;5.63;4.30;;;7.60;99.90;;;;;;5093757;28;20184;-67
2023/04/20 01:52:27;;;;;;;6.47;4.57;;;7.50;99.90;;;;;;5096710;28;20300;-67
2023/04/20 01:54:52;;;;;;;7.33;4.37;;;7.50;1.00;;;;;;5096777;28;20176;-67
2023/04/20 01:57:18;;;;;;;7.20;4.40;;;7.50;3.10;;;;;;5096814;28;20696;-67
2023/04/20 01:59:43;;;;;;;5.93;4.33;;;7.50;1.00;;;;;;5097260;28;20172;-67
2023/04/20 02:02:09;;;;;;;13.10;4.97;;;7.50;1.00;;;;;;5096666;28;20227;-68
2023/04/20 02:04:35;;;;;;;4.13;3.00;;;7.40;1.00;;;;;;5096848;28;20673;-68
2023/04/20 02:07:01;;;;;;;5.17;4.23;;;7.40;1.00;;;;;;5096566;28;20172;-68
2023/04/20 02:09:26;;;;;;;8.47;4.10;;;7.40;99.90;;;;;;5096611;28;20232;-68
2023/04/20 02:11:55;;;;;;;9.97;4.57;;;7.40;1.00;;;;;;5096445;28;20674;-67
2023/04/20 02:14:21;;;;;;;7.47;4.50;;;7.40;99.90;;;;;;5096636;28;20167;-67
2023/04/20 02:16:51;;;;;;;4.90;4.40;;;7.30;1.00;;;;;;5096361;28;20257;-68
2023/04/20 02:19:17;;;;;;;6.30;4.70;;;7.30;1.20;;;;;;5095349;28;20195;-67
2023/04/20 02:21:43;;;;;;;8.33;4.13;;;7.20;99.00;;;;;;5096293;28;20256;-68
2023/04/20 02:24:08;;;;;;;7.80;3.93;;;7.20;1.00;;;;;;5096053;28;20229;-67
2023/04/20 02:26:37;;;;;;;4.10;3.80;;;7.10;1.00;;;;;;5096465;28;20171;-68
2023/04/20 02:29:02;;;;;;;4.53;3.87;;;7.10;99.90;;;;;;5096778;28;20164;-67
2023/04/20 02:31:28;;;;;;;5.73;3.80;;;7.10;99.90;;;;;;5096393;28;20260;-66
2023/04/20 02:33:53;;;;;;;6.40;4.27;;;7.10;1.00;;;;;;5096220;28;20188;-67
2023/04/20 02:36:19;;;;;;;7.43;4.33;;;7.10;99.90;;;;;;5096370;28;20214;-67
2023/04/20 02:38:44;;;;;;;5.50;4.30;;;7.00;99.90;;;;;;5095566;28;20570;-68
2023/04/20 02:41:10;;;;;;;7.20;4.40;;;7.00;1.00;;;;;;5095767;28;20239;-68
2023/04/20 02:43:36;;;;;;;7.60;4.90;;;7.00;1.00;;;;;;5096270;28;20262;-68
2023/04/20 02:46:01;;;;;;;5.13;4.30;;;6.90;99.90;;;;;;5096254;28;20609;-67
2023/04/20 02:48:27;;;;;;;9.67;4.60;;;6.90;1.00;;;;;;5096014;28;20172;-68
2023/04/20 02:50:55;;;;;;;7.47;4.60;;;6.90;99.90;;;;;;5095912;28;20674;-68
2023/04/20 02:53:21;;;;;;;7.70;4.97;;;6.90;1.00;;;;;;5095495;28;20179;-68
2023/04/20 02:55:46;;;;;;;8.80;4.40;;;6.80;1.00;;;;;;5096119;28;20285;-68
2023/04/20 02:58:12;;;;;;;15.40;5.60;;;6.80;86.10;;;;;;5095570;28;20496;-67
2023/04/20 03:00:38;;;;;;;10.67;4.67;;;6.80;99.90;;;;;;5096175;28;20194;-68
2023/04/20 03:03:03;;;;;;;6.97;4.70;;;6.70;1.00;;;;;;5095118;28;20171;-67
2023/04/20 03:05:29;;;;;;;11.40;4.47;;;6.70;1.00;;;;;;5095756;28;20176;-67
2023/04/20 03:07:55;;;;;;;7.87;4.43;;;6.70;99.90;;;;;;5095336;28;20217;-68
2023/04/20 03:10:21;;;;;;;6.87;4.37;;;6.60;1.00;;;;;;5095933;28;20178;-68
2023/04/20 03:12:49;;;;;;;11.27;4.53;;;6.60;1.00;;;;;;5095577;28;20215;-68
2023/04/20 03:15:15;;;;;;;7.97;4.87;;;6.60;99.90;;;;;;5095360;28;20205;-68
2023/04/20 03:17:41;;;;;;;9.37;4.80;;;6.60;99.90;;;;;;5095061;28;20527;-68
2023/04/20 03:20:08;;;;;;;8.00;4.50;;;6.50;99.90;;;;;;5095138;28;20164;-67
2023/04/20 03:22:36;;;;;;;7.07;3.87;;;6.50;40.70;;;;;;5094589;28;20171;-67
2023/04/20 03:25:01;;;;;;;9.47;4.80;;;6.60;1.00;;;;;;5095461;28;20172;-67
2023/04/20 03:27:27;;;;;;;4.80;4.30;;;6.50;99.90;;;;;;5095221;28;20562;-67
2023/04/20 03:29:53;;;;;;;8.10;4.40;;;6.60;1.00;;;;;;5095297;28;20164;-67
2023/04/20 03:32:21;;;;;;;10.03;4.27;;;6.60;99.90;;;;;;5094787;28;20247;-67
2023/04/20 03:34:47;;;;;;;10.93;4.30;;;6.50;1.00;;;;;;5094757;28;20276;-68
2023/04/20 03:37:13;;;;;;;10.57;4.50;;;6.50;1.00;;;;;;5094566;28;20203;-66
2023/04/20 03:39:39;;;;;;;6.40;4.37;;;6.50;1.00;;;;;;5094823;28;20164;-67
2023/04/20 03:42:05;;;;;;;8.47;4.40;;;6.50;1.00;;;;;;5094445;28;20216;-69
2023/04/20 03:44:30;;;;;;;8.07;4.40;;;6.50;99.90;;;;;;5095109;28;20163;-68
2023/04/20 03:46:56;;;;;;;9.23;4.70;;;6.50;99.90;;;;;;5094787;28;20221;-67
2023/04/20 03:49:23;;;;;;;5.73;4.47;;;6.50;99.90;;;;;;5092848;28;20266;-67
2023/04/20 03:51:49;;;;;;;7.13;4.53;;;6.50;86.10;;;;;;5094235;28;20204;-69
2023/04/20 03:54:15;;;;;;;13.77;4.63;;;6.50;1.00;;;;;;5094120;28;20176;-68
2023/04/20 03:56:41;;;;;;;5.43;4.30;;;6.50;1.00;;;;;;5094287;28;20259;-68
2023/04/20 03:59:06;;;;;;;13.57;4.90;;;6.50;1.00;;;;;;5094378;28;20167;-67
2023/04/20 04:01:32;;;;;;;10.80;5.00;;;6.50;99.90;;;;;;5094521;28;20180;-67
2023/04/20 04:03:57;;;;;;;6.27;4.57;;;6.50;79.50;;;;;;5094014;28;20175;-67
2023/04/20 04:06:30;;;;;;;5.73;4.30;;;6.50;99.90;;;;;;5093864;28;20172;-68
2023/04/20 04:08:56;;;;;;;4.43;4.03;;;6.50;99.90;;;;;;5093889;28;20203;-68
2023/04/20 04:11:28;;;;;;;7.40;3.90;;;6.40;1.00;;;;;;5094033;28;20666;-68
2023/04/20 04:13:54;;;;;;;6.70;3.77;;;6.30;1.00;;;;;;5092688;28;20629;-68
2023/04/20 04:16:20;;;;;;;9.63;4.67;;;6.20;1.00;;;;;;5094340;28;20247;-68
2023/04/20 04:18:49;;;;;;;6.37;4.30;;;6.20;1.00;;;;;;5094296;28;20618;-67
2023/04/20 04:21:14;;;;;;;6.53;4.17;;;6.20;1.00;;;;;;5093405;28;20262;-68
2023/04/20 04:23:41;;;;;;;5.00;3.87;;;6.20;1.00;;;;;;5093833;28;20251;-67
2023/04/20 04:26:07;;;;;;;5.87;3.80;;;6.20;1.00;;;;;;5093809;28;20168;-69
2023/04/20 04:28:33;;;;;;;10.90;4.50;;;6.20;1.00;;;;;;5093652;28;20201;-68
2023/04/20 04:31:04;;;;;;;8.03;3.50;;;6.20;1.00;;;;;;5093685;28;20196;-68
2023/04/20 04:33:32;;;;;;;7.47;4.13;;;6.20;1.00;;;;;;5093379;28;20262;-67
2023/04/20 04:35:58;;;;;;;5.87;3.90;;;6.30;1.00;;;;;;5093866;28;20176;-68
2023/04/20 04:38:24;;;;;;;7.50;3.80;;;6.40;1.00;;;;;;5093524;28;20171;-66
2023/04/20 04:40:51;;;;;;;6.10;3.37;;;6.40;1.00;;;;;;5093370;28;20179;-67
2023/04/20 04:43:19;;;;;;;7.87;3.70;;;6.50;99.90;;;;;;5093288;28;20673;-68
2023/04/20 04:45:48;;;;;;;5.40;3.77;;;6.40;99.90;;;;;;5093202;28;20168;-67
2023/04/20 04:48:14;;;;;;;8.97;4.00;;;6.50;1.00;;;;;;5093023;28;20168;-67
2023/04/20 04:50:40;;;;;;;5.27;3.47;;;6.50;1.00;;;;;;5093081;28;20176;-67
2023/04/20 04:53:06;;;;;;;4.27;3.83;;;6.50;1.00;;;;;;5092229;28;20290;-67
2023/04/20 04:55:34;;;;;;;8.87;4.03;;;6.60;1.00;;;;;;5093240;28;20227;-68
2023/04/20 04:58:02;;;;;;;4.90;3.43;;;6.60;12.20;;;;;;5092772;28;20286;-66
2023/04/20 05:00:31;;;;;;;6.63;3.97;;;6.60;99.90;;;;;;5093116;28;20250;-67
2023/04/20 05:02:57;;;;;;;5.43;3.90;;;6.60;99.90;;;;;;5092898;28;20271;-68
2023/04/20 05:05:24;;;;;;;13.77;4.20;;;6.60;99.90;;;;;;5092937;28;20199;-67
2023/04/20 05:07:49;;;;;;;3.87;3.40;;;6.70;99.90;;;;;;5093071;28;20182;-67
2023/04/20 05:10:15;;;;;;;4.87;3.87;;;6.80;99.90;;;;;;5092055;28;20259;-66
2023/04/20 05:12:41;;;;;;;6.83;4.03;;;6.90;99.90;;;;;;5091944;28;20623;-67
2023/04/20 05:15:09;;;;;;;7.37;4.10;;;6.90;99.90;;;;;;5092990;28;20247;-67
2023/04/20 05:17:35;;;;;;;6.50;3.90;;;6.90;99.90;;;;;;5092622;28;20183;-68
2023/04/20 05:20:00;;;;;;;7.33;4.17;;;6.90;1.00;;;;;;5092196;28;20251;-68
2023/04/20 05:22:26;;;;;;;6.70;4.27;;;6.90;1.00;;;;;;5092218;28;20167;-66
2023/04/20 05:24:51;;;;;;;5.87;4.07;;;7.00;1.00;;;;;;5092035;28;20168;-68
2023/04/20 05:27:23;;;;;;;9.00;4.13;;;7.10;1.00;;;;;;5092333;28;20301;-67
2023/04/20 05:29:49;;;;;;;7.13;3.60;;;7.00;1.00;;;;;;5091999;28;20172;-67
2023/04/20 05:32:17;;;;;;;6.53;3.70;;;7.20;1.00;;;;;;5091459;28;20214;-67
2023/04/20 05:34:43;;;;;;;5.00;3.80;;;7.30;1.00;;;;;;5092122;28;20275;-68
2023/04/20 05:37:08;;;;;;;6.40;4.20;;;7.40;1.00;;;;;;5092338;28;20248;-67
2023/04/20 05:39:34;;;;;;;4.77;4.00;;;7.40;1.00;;;;;;5090474;28;20167;-68
2023/04/20 05:42:00;;;;;;;6.20;4.43;;;7.40;1.00;;;;;;5090991;28;20259;-68
2023/04/20 05:44:26;;;;;;;6.47;3.97;;;7.50;1.00;;;;;;5091919;28;20265;-68
2023/04/20 05:46:51;;;;;;;7.83;4.13;;;7.50;1.00;;;;;;5089452;28;20646;-67
2023/04/20 05:49:17;;;;;;;14.33;4.83;;;7.50;1.00;;;;;;5091825;28;20176;-68
2023/04/20 05:51:42;;;;;;;6.93;4.60;;;7.60;1.00;;;;;;5091573;28;20281;-67
2023/04/20 05:54:09;;;;;;;7.53;3.80;;;7.70;1.00;;;;;;5090253;28;20316;-67
2023/04/20 05:56:34;;;;;;;4.80;4.20;;;7.70;1.00;;;;;;5090423;28;20183;-69
2023/04/20 05:59:03;;;;;;;5.57;3.57;;;7.70;1.00;;;;;;5091226;28;20168;-68
2023/04/20 06:01:28;;;;;;;6.73;4.13;;;7.70;1.00;;;;;;5092068;28;20172;-67
2023/04/20 06:03:54;;;;;;;5.37;4.10;;;7.70;1.00;;;;;;5091881;28;20175;-67
2023/04/20 06:06:19;;;;;;;7.50;4.17;;;7.60;1.00;;;;;;5091470;28;20263;-68
2023/04/20 06:08:45;;;;;;;8.40;4.27;;;7.70;1.00;;;;;;5091174;28;20168;-68
2023/04/20 06:11:11;;;;;;;5.15;4.50;;;7.70;1.00;;;;;;5089071;28;20839;-69
2023/04/20 06:13:36;;;;;;;4.67;4.10;;;7.80;1.00;;;;;;5091067;28;20199;-69
2023/04/20 06:16:02;;;;;;;8.30;4.50;;;7.90;1.00;;;;;;5089768;28;20230;-69
2023/04/20 06:18:31;;;;;;;9.37;4.33;;;7.90;1.00;;;;;;5090404;28;20246;-69
2023/04/20 06:20:56;;;;;;;5.50;4.23;;;8.00;1.00;;;;;;5091094;28;20179;-69
2023/04/20 06:23:22;;;;;;;8.63;4.60;;;8.00;1.00;;;;;;5091625;28;20184;-69
2023/04/20 06:25:47;;;;;;;8.13;4.73;;;8.00;1.00;;;;;;5090567;28;20266;-70
2023/04/20 06:28:13;;;;;;;6.53;4.20;;;8.00;1.00;;;;;;5088892;28;20179;-69
2023/04/20 06:30:38;;;;;;;9.23;5.20;;;8.10;1.00;;;;;;5089784;28;20255;-70
2023/04/20 06:33:04;;;;;;;7.73;5.00;;;8.10;1.00;;;;;;5091522;28;20576;-71
2023/04/20 06:35:30;;;;;;;7.47;4.43;;;8.10;1.00;;;;;;5089199;28;20261;-70
2023/04/20 06:37:56;;;;;;;5.57;4.13;;;8.10;1.00;;;;;;5093534;28;20564;-72
2023/04/20 06:40:25;;;;;;;8.83;4.90;;;8.10;1.00;;;;;;5094434;28;20186;-69
2023/04/20 06:42:51;;;;;;;9.70;5.33;;;8.10;1.00;;;;;;5094125;28;20254;-70
2023/04/20 06:45:17;;;;;;;8.93;4.63;;;8.10;1.00;;;;;;5094369;28;20172;-70
2023/04/20 06:47:42;;;;;;;9.97;6.10;;;8.00;1.00;;;;;;5094608;28;20183;-70
2023/04/20 06:50:08;;;;;;;13.07;4.63;;;7.90;1.00;;;;;;5094067;28;20251;-69
2023/04/20 06:52:38;;;;;;;7.67;4.97;;;7.80;1.00;;;;;;5092188;28;20207;-69
2023/04/20 06:55:04;;;;;;;8.80;6.00;;;7.80;1.00;;;;;;5093139;28;20203;-69
2023/04/20 06:57:30;;;;;;;7.97;5.07;;;7.70;1.00;;;;;;5094138;28;20168;-70
2023/04/20 06:59:57;;;;;;;14.57;4.43;;;7.80;1.00;;;;;;5093408;28;20168;-71
2023/04/20 07:02:23;;;;;;;9.47;5.43;;;7.80;1.00;;;;;;5094937;28;20295;-69
2023/04/20 07:04:49;;;;;;;7.23;5.43;;;7.80;1.00;;;;;;5094377;28;20172;-69
2023/04/20 07:07:15;;;;;;;5.80;5.30;;;7.80;1.00;;;;;;5094607;28;20168;-69
2023/04/20 07:09:41;;;;;;;5.70;5.10;;;7.80;1.00;;;;;;5094063;28;20274;-69
2023/04/20 07:12:07;;;;;;;8.80;5.30;;;7.80;1.00;;;;;;5094360;28;20332;-70
2023/04/20 07:14:32;;;;;;;5.53;4.67;;;7.80;1.00;;;;;;5086933;28;20180;-70
2023/04/20 07:16:58;;;;;;;4.70;4.17;;;7.80;1.00;;;;;;5090890;28;20180;-70
2023/04/20 07:19:24;;;;;;;5.20;4.70;;;7.80;1.00;;;;;;5084733;28;20176;-70
2023/04/20 07:21:49;;;;;;;10.13;6.03;;;7.70;1.00;;;;;;5093246;28;20266;-70
2023/04/20 07:24:15;;;;;;;6.07;5.53;;;7.80;1.00;;;;;;5092238;28;20536;-72
2023/04/20 07:26:40;;;;;;;7.83;5.57;;;7.70;1.00;;;;;;5093349;28;20179;-70
2023/04/20 07:29:06;;;;;;;10.07;4.10;;;7.70;1.00;;;;;;5091831;28;20176;-69
2023/04/20 07:31:35;;;;;;;9.97;6.30;;;7.70;1.00;;;;;;5090088;28;20211;-71
2023/04/20 07:34:00;;;;;;;8.20;6.13;;;7.70;1.00;;;;;;5091894;28;20241;-70
2023/04/20 07:36:26;;;;;;;9.30;5.40;;;7.70;1.00;;;;;;5092268;28;20536;-69
2023/04/20 07:38:52;;;;;;;7.43;4.67;;;7.70;1.00;;;;;;5091947;28;20210;-69
2023/04/20 07:41:22;;;;;;;6.77;5.73;;;7.70;1.00;;;;;;5087836;28;20227;-71
2023/04/20 07:43:47;;;;;;;10.10;6.20;;;7.80;1.00;;;;;;5090459;28;20631;-69
2023/04/20 07:46:22;;;;;;;9.43;6.10;;;7.70;1.00;;;;;;5086849;28;20184;-69
2023/04/20 07:48:48;;;;;;;5.80;5.20;;;7.90;1.00;;;;;;5089089;28;20312;-69
2023/04/20 07:51:14;;;;;;;11.77;6.47;;;7.90;1.00;;;;;;5091095;28;20674;-71
2023/04/20 07:53:41;;;;;;;7.67;6.07;;;7.80;1.00;;;;;;5089233;28;20187;-71
2023/04/20 07:56:07;;;;;;;6.23;5.30;;;7.80;1.00;;;;;;5092563;28;20176;-70
2023/04/20 07:58:33;;;;;;;10.40;5.83;;;7.80;1.00;;;;;;5087366;28;20495;-69
2023/04/20 08:00:59;;;;;;;9.17;7.30;;;7.80;1.00;;;;;;5088666;28;20586;-69
2023/04/20 08:03:26;;;;;;;10.43;8.37;;;8.00;1.00;;;;;;5090546;28;20654;-71
2023/04/20 08:05:51;;;;;;;12.63;6.87;;;8.10;1.00;;;;;;5090978;28;20542;-71
2023/04/20 08:08:17;;;;;;;9.87;6.43;;;8.10;1.00;;;;;;5091969;28;20183;-69
2023/04/20 08:10:42;;;;;;;9.70;6.47;;;8.00;1.00;;;;;;5091168;28;20270;-70
2023/04/20 08:13:08;;;;;;;10.03;6.80;;;8.00;1.00;;;;;;5088188;28;20227;-71
2023/04/20 08:15:34;;;;;;;11.67;6.10;;;8.10;1.00;;;;;;5085298;28;20586;-72
2023/04/20 08:18:00;;;;;;;9.43;6.67;;;8.00;1.00;;;;;;5089339;28;20330;-69
2023/04/20 08:20:25;;;;;;;8.97;5.83;;;8.10;1.00;;;;;;5091070;28;20274;-69
2023/04/20 08:22:52;;;;;;;7.40;4.87;;;8.10;1.00;;;;;;5091492;28;20179;-70
2023/04/20 08:25:17;;;;;;;8.90;6.40;;;8.00;1.00;;;;;;5088154;28;20195;-71
2023/04/20 08:27:43;;;;;;;8.20;6.17;;;8.00;1.00;;;;;;5089896;28;20176;-70
2023/04/20 08:30:09;;;;;;;11.63;6.93;;;8.10;1.00;;;;;;5092512;28;20182;-70
2023/04/20 08:32:39;;;;;;;11.93;7.03;;;8.30;1.00;;;;;;5090108;28;20598;-69
2023/04/20 08:35:06;;;;;;;7.47;6.70;;;8.50;1.00;;;;;;5089558;28;20203;-71
2023/04/20 08:37:31;;;;;;;7.83;6.63;;;8.70;1.00;;;;;;5090840;28;20179;-70
2023/04/20 08:40:00;;;;;;;8.43;6.43;;;8.80;1.00;;;;;;5088685;28;20651;-70
2023/04/20 08:42:26;;;;;;;8.20;6.37;;;8.90;1.00;;;;;;5089342;28;20617;-69
2023/04/20 08:44:52;;;;;;;8.27;6.40;;;8.90;1.00;;;;;;5091604;28;20197;-69
2023/04/20 08:47:19;;;;;;;9.33;6.23;;;8.70;1.00;;;;;;5087248;28;20180;-69
2023/04/20 08:49:46;;;;;;;10.37;6.13;;;8.70;1.00;;;;;;5090990;28;20182;-69
2023/04/20 08:52:12;;;;;;;10.67;6.53;;;8.80;1.00;;;;;;5091094;28;20223;-70
2023/04/20 08:54:38;;;;;;;12.10;6.73;;;8.80;1.00;;;;;;5089945;28;20169;-69
2023/04/20 08:57:04;;;;;;;8.03;6.33;;;8.80;1.00;;;;;;5089930;28;20241;-70
2023/04/20 08:59:30;;;;;;;7.33;6.40;;;8.70;1.00;;;;;;5090266;28;20180;-70
2023/04/20 09:02:06;;;;;;;11.77;7.93;;;8.60;1.00;;;;;;5088667;28;20212;-70
2023/04/20 09:04:32;;;;;;;10.50;7.87;;;8.80;1.00;;;;;;5092562;28;20247;-70
2023/04/20 09:06:57;;;;;;;12.70;7.40;;;8.80;1.00;;;;;;5089585;28;20194;-71
2023/04/20 09:09:26;;;;;;;14.60;6.77;;;8.90;1.00;;;;;;5089064;28;20175;-72
2023/04/20 09:12:06;;;;;;;10.77;6.63;;;9.00;1.00;;;;;;5091723;28;20206;-72
2023/04/20 09:15:01;;;;;;;7.73;6.53;;;9.10;1.00;;;;;;5089697;28;20335;-70
2023/04/20 09:17:39;;;;;;;13.43;6.87;;;9.20;1.00;;;;;;5027696;28;20711;-69
2023/04/20 09:20:06;;;;;;;8.33;6.60;;;9.10;1.00;;;;;;5011968;28;20722;-71
2023/04/20 09:22:34;;;;;;;8.03;6.77;;;9.30;1.00;;;;;;5016149;28;20225;-70
2023/04/20 09:25:10;;;;;;;10.20;6.43;;;9.40;1.00;;;;;;5009354;28;20190;-70
2023/04/20 09:27:36;;;;;;;7.17;6.40;;;9.60;1.00;;;;;;4992270;28;20218;-72
2023/04/20 09:30:03;;;;;;;8.37;6.30;;;9.80;1.00;;;;;;5024984;28;20194;-72
2023/04/20 09:32:29;;;;;;;7.93;6.40;;;10.20;1.00;;;;;;5008900;28;20549;-71
2023/04/20 09:34:55;;;;;;;9.83;7.20;;;10.90;1.00;;;;;;5015559;28;20298;-71
2023/04/20 09:37:24;;;;;;;6.30;5.80;;;11.60;1.00;;;;;;5021084;28;20179;-71
2023/04/20 09:39:57;;;;;;;10.20;6.17;;;12.10;1.00;;;;;;5008502;28;20208;-70
2023/04/20 09:42:26;;;;;;;10.17;6.30;;;11.90;1.00;;;;;;5010625;28;20693;-72
2023/04/20 09:44:53;;;;;;;11.43;6.33;;;12.10;99.90;;;;;;5017763;28;20209;-71
2023/04/20 09:47:21;;;;;;;6.70;5.93;;;12.30;99.90;;;;;;5005834;28;20412;-73
2023/04/20 09:49:46;;;;;;;9.37;6.23;;;12.10;99.90;;;;;;5009839;28;20661;-73
2023/04/20 09:52:16;;;;;;;9.83;6.40;;;11.70;99.90;;;;;;5008944;28;20229;-73
2023/04/20 09:54:43;;;;;;;8.47;6.57;;;11.30;1.00;;;;;;5059824;28;20620;-73
2023/04/20 09:57:10;;;;;;;11.47;6.27;;;10.70;1.00;;;;;;5069827;28;20192;-74
2023/04/20 09:59:37;;;;;;;9.60;6.23;;;10.20;1.00;;;;;;5066324;28;20219;-70
2023/04/20 10:02:11;;;;;;;10.10;6.40;;;10.10;1.00;;;;;;5071030;28;20222;-71
2023/04/20 10:04:36;;;;;;;6.77;6.03;;;9.80;1.00;;;;;;5070563;28;20488;-72
2023/04/20 10:07:05;;;;;;;7.07;5.67;;;9.80;1.00;;;;;;5067798;28;20188;-71
2023/04/20 10:09:32;;;;;;;6.83;5.50;;;9.80;1.00;;;;;;5069555;28;20183;-71
2023/04/20 10:12:08;;;;;;;7.03;5.87;;;9.80;1.00;;;;;;5067995;28;20208;-71
2023/04/20 10:14:34;;;;;;;6.20;5.60;;;10.00;1.00;;;;;;5073525;28;20266;-70
2023/04/20 10:17:05;;;;;;;7.43;6.27;;;10.10;1.00;;;;;;5073248;28;20177;-72
2023/04/20 10:19:38;;;;;;;6.13;5.53;;;10.20;1.00;;;;;;5073165;28;20188;-72
2023/04/20 10:22:09;;;;;;;5.47;4.30;;;10.20;1.00;;;;;;5070982;28;20230;-74
2023/04/20 10:24:37;;;;;;;10.80;6.53;;;10.20;1.00;;;;;;5073718;28;20226;-72
2023/04/20 10:27:03;;;;;;;12.93;6.57;;;10.10;1.00;;;;;;5070638;28;20207;-72
2023/04/20 10:29:35;;;;;;;9.87;6.40;;;10.30;1.00;;;;;;5071022;28;20532;-71
2023/04/20 10:32:01;;;;;;;6.40;5.80;;;10.50;1.00;;;;;;5060877;28;20494;-72
2023/04/20 10:34:34;;;;;;;7.77;6.07;;;10.40;1.00;;;;;;5075239;28;20218;-70
2023/04/20 10:37:13;;;;;;;7.30;5.23;;;10.30;1.00;;;;;;5074127;28;20639;-70
2023/04/20 10:39:46;;;;;;;6.30;4.80;;;10.10;1.00;;;;;;5074339;28;20173;-70
2023/04/20 10:42:12;;;;;;;4.87;4.27;;;10.00;1.00;;;;;;5072739;28;20236;-71
2023/04/20 10:44:51;;;;;;;5.37;4.87;;;9.90;1.00;;;;;;5074334;28;20264;-71
2023/04/20 10:47:25;;;;;;;8.07;5.00;;;9.80;1.00;;;;;;5074535;28;20180;-73
2023/04/20 10:49:50;;;;;;;7.47;5.30;;;9.70;1.00;;;;;;5074947;28;20194;-72
2023/04/20 10:52:16;;;;;;;6.90;4.87;;;9.70;1.00;;;;;;5073845;28;20676;-71
2023/04/20 10:54:45;;;;;;;5.57;4.53;;;9.70;1.00;;;;;;5074422;28;20211;-71
2023/04/20 10:57:15;;;;;;;5.27;4.80;;;9.60;1.00;;;;;;5073528;28;20582;-72
2023/04/20 10:59:40;;;;;;;5.83;5.00;;;9.60;1.00;;;;;;5073407;28;20200;-71
2023/04/20 11:02:11;;;;;;;7.27;5.20;;;9.60;1.00;;;;;;5066793;28;20591;-72
2023/04/20 11:04:37;;;;;;;6.63;5.03;;;9.60;1.00;;;;;;5073927;28;20216;-69
2023/04/20 11:07:12;;;;;;;8.57;5.60;;;9.50;1.00;;;;;;5072528;28;20528;-72
2023/04/20 11:09:51;;;;;;;7.07;5.00;;;9.50;1.00;;;;;;5074402;28;20241;-72
2023/04/20 11:12:17;;;;;;;6.00;5.50;;;9.60;1.00;;;;;;5074566;28;20684;-71
2023/04/20 11:15:01;;;;;;;8.07;5.80;;;9.60;1.00;;;;;;5074818;28;20176;-71
2023/04/20 11:17:32;;;;;;;6.53;4.73;;;9.60;1.00;;;;;;5073768;28;20176;-72
2023/04/20 11:20:09;;;;;;;5.87;5.23;;;9.60;1.00;;;;;;5071820;28;20157;-70
2023/04/20 11:22:36;;;;;;;8.37;5.80;;;9.70;1.00;;;;;;5073066;28;20274;-70
2023/04/20 11:25:06;;;;;;;5.80;5.20;;;9.70;1.00;;;;;;5074552;28;20218;-73
2023/04/20 11:27:33;;;;;;;7.83;5.80;;;9.80;1.00;;;;;;5073847;28;20204;-72
2023/04/20 11:30:03;;;;;;;6.60;5.90;;;10.00;1.00;;;;;;5069540;28;20331;-71
2023/04/20 11:32:30;;;;;;;8.73;6.07;;;10.20;1.00;;;;;;5070801;28;20212;-71
2023/04/20 11:35:01;;;;;;;8.07;6.00;;;10.40;1.00;;;;;;5070860;28;20745;-73
2023/04/20 11:37:27;;;;;;;7.40;5.40;;;10.50;1.00;;;;;;5065037;28;20233;-71
2023/04/20 11:40:08;;;;;;;7.40;5.90;;;10.40;1.00;;;;;;5071940;28;20180;-70
2023/04/20 11:42:35;;;;;;;7.40;6.17;;;10.30;1.00;;;;;;5090011;28;20242;-71
2023/04/20 11:45:04;;;;;;;6.33;5.13;;;10.40;1.00;;;;;;5089549;28;20275;-72
2023/04/20 11:47:29;;;;;;;6.43;5.20;;;10.40;1.00;;;;;;5089443;28;20549;-71
2023/04/20 11:49:58;;;;;;;5.30;4.90;;;10.40;1.00;;;;;;5089537;28;20188;-71
2023/04/20 11:52:23;;;;;;;5.93;5.20;;;10.30;1.00;;;;;;5091894;28;20812;-71
2023/04/20 11:54:49;;;;;;;6.00;5.23;;;10.20;1.00;;;;;;5090997;28;20180;-71
2023/04/20 11:57:15;;;;;;;6.10;5.27;;;10.40;1.00;;;;;;5091215;28;20225;-70
2023/04/20 11:59:46;;;;;;;6.17;5.57;;;10.70;1.00;;;;;;5087007;28;20185;-71
2023/04/20 12:02:15;;;;;;;5.57;5.13;;;11.10;1.00;;;;;;5089387;28;20309;-71
2023/04/20 12:04:41;;;;;;;6.13;5.60;;;11.00;1.00;;;;;;5093133;28;20167;-73
2023/04/20 12:07:06;;;;;;;7.00;5.93;;;11.50;99.90;;;;;;5090571;28;20523;-71
2023/04/20 12:09:37;;;;;;;10.70;6.17;;;11.70;90.80;;;;;;5092131;28;20187;-71
2023/04/20 12:12:05;;;;;;;9.37;5.77;;;11.90;1.00;;;;;;5090629;28;20311;-72
2023/04/20 12:14:35;;;;;;;6.70;5.60;;;11.80;1.00;;;;;;5090283;28;20258;-71
2023/04/20 12:17:02;;;;;;;5.90;5.30;;;11.60;1.00;;;;;;5091389;28;20182;-70
2023/04/20 12:19:28;;;;;;;6.37;5.57;;;11.20;99.90;;;;;;5089585;28;20215;-70
2023/04/20 12:21:55;;;;;;;6.83;6.13;;;11.10;99.90;;;;;;5090879;28;20253;-71
2023/04/20 12:24:21;;;;;;;6.53;5.93;;;10.80;99.90;;;;;;5091761;28;20186;-73
2023/04/20 12:26:46;;;;;;;6.57;6.07;;;10.70;1.00;;;;;;5091568;28;20218;-71
2023/04/20 12:29:12;;;;;;;6.30;5.80;;;10.60;1.00;;;;;;5090933;28;20215;-71
2023/04/20 12:31:38;;;;;;;11.10;6.10;;;10.70;1.00;;;;;;5089979;28;20219;-71
2023/04/20 12:34:07;;;;;;;6.43;5.70;;;10.90;1.00;;;;;;5086865;28;20281;-69
2023/04/20 12:36:33;;;;;;;6.70;6.10;;;10.80;1.00;;;;;;5091022;28;20203;-72
2023/04/20 12:39:00;;;;;;;6.80;6.20;;;10.80;1.00;;;;;;5090214;28;20176;-72
2023/04/20 12:41:26;;;;;;;6.37;5.87;;;10.90;1.00;;;;;;5092056;28;20377;-69
2023/04/20 12:43:52;;;;;;;6.10;5.43;;;10.70;1.00;;;;;;5091726;28;20203;-69
2023/04/20 12:46:17;;;;;;;7.17;5.70;;;10.50;1.00;;;;;;5091798;28;20613;-71
2023/04/20 12:48:46;;;;;;;7.47;6.10;;;10.40;1.00;;;;;;5087716;28;20209;-70
2023/04/20 12:51:14;;;;;;;7.10;5.63;;;10.50;1.00;;;;;;5091381;28;20259;-70
2023/04/20 12:53:40;;;;;;;6.77;6.07;;;10.80;1.00;;;;;;5089715;28;20647;-71
2023/04/20 12:56:06;;;;;;;6.33;5.53;;;10.80;1.00;;;;;;5091310;28;20631;-72
2023/04/20 12:58:32;;;;;;;7.73;6.40;;;11.00;1.00;;;;;;5091534;28;20187;-70
2023/04/20 13:00:57;;;;;;;6.90;6.20;;;11.10;1.00;;;;;;5090371;28;20199;-72